sensor_id;sensor_type;location;lat;lon;timestamp;P1;durP1;ratioP1;P2;durP2;ratioP2
18072;SDS011;9161;47.348;9.648;2023-12-28T00:03:05;15.50;;;5.67;;
18072;SDS011;9161;47.348;9.648;2023-12-28T00:08:09;19.70;;;7.30;;
18072;SDS011;9161;47.348;9.648;2023-12-28T00:13:11;14.07;;;6.17;;
18072;SDS011;9161;47.348;9.648;2023-12-28T00:18:13;16.97;;;6.60;;
18072;SDS011;9161;47.348;9.648;2023-12-28T00:23:16;15.10;;;6.57;;
18072;SDS011;9161;47.348;9.648;2023-12-28T00:28:20;15.13;;;5.07;;
18072;SDS011;9161;47.348;9.648;2023-12-28T00:33:22;10.77;;;4.20;;
18072;SDS011;9161;47.348;9.648;2023-12-28T00:38:25;10.67;;;3.57;;
18072;SDS011;9161;47.348;9.648;2023-12-28T00:43:28;11.10;;;3.60;;
18072;SDS011;9161;47.348;9.648;2023-12-28T00:48:30;11.07;;;4.00;;
18072;SDS011;9161;47.348;9.648;2023-12-28T00:53:34;7.27;;;3.87;;
18072;SDS011;9161;47.348;9.648;2023-12-28T00:58:38;16.30;;;6.83;;
18072;SDS011;9161;47.348;9.648;2023-12-28T01:03:40;14.87;;;6.37;;
18072;SDS011;9161;47.348;9.648;2023-12-28T01:08:44;12.40;;;5.73;;
18072;SDS011;9161;47.348;9.648;2023-12-28T01:13:46;13.80;;;6.30;;
18072;SDS011;9161;47.348;9.648;2023-12-28T01:18:48;16.07;;;6.50;;
18072;SDS011;9161;47.348;9.648;2023-12-28T01:23:52;18.47;;;6.20;;
18072;SDS011;9161;47.348;9.648;2023-12-28T01:28:54;15.70;;;6.33;;
18072;SDS011;9161;47.348;9.648;2023-12-28T01:33:57;15.77;;;6.80;;
18072;SDS011;9161;47.348;9.648;2023-12-28T01:39:00;13.00;;;5.53;;
18072;SDS011;9161;47.348;9.648;2023-12-28T01:44:03;11.93;;;5.33;;
18072;SDS011;9161;47.348;9.648;2023-12-28T01:49:05;13.87;;;5.70;;
18072;SDS011;9161;47.348;9.648;2023-12-28T01:54:09;18.10;;;7.33;;
18072;SDS011;9161;47.348;9.648;2023-12-28T01:59:11;17.30;;;5.97;;
18072;SDS011;9161;47.348;9.648;2023-12-28T02:04:14;13.87;;;6.17;;
18072;SDS011;9161;47.348;9.648;2023-12-28T02:09:18;16.30;;;6.60;;
18072;SDS011;9161;47.348;9.648;2023-12-28T02:14:20;15.07;;;5.90;;
18072;SDS011;9161;47.348;9.648;2023-12-28T02:19:25;11.03;;;5.47;;
18072;SDS011;9161;47.348;9.648;2023-12-28T02:24:48;12.77;;;5.53;;
18072;SDS011;9161;47.348;9.648;2023-12-28T02:30:15;11.10;;;4.60;;
18072;SDS011;9161;47.348;9.648;2023-12-28T02:35:19;12.70;;;5.00;;
18072;SDS011;9161;47.348;9.648;2023-12-28T02:40:26;15.03;;;5.13;;
18072;SDS011;9161;47.348;9.648;2023-12-28T02:45:29;12.40;;;6.30;;
18072;SDS011;9161;47.348;9.648;2023-12-28T02:50:31;7.87;;;3.80;;
18072;SDS011;9161;47.348;9.648;2023-12-28T02:55:35;13.07;;;4.63;;
18072;SDS011;9161;47.348;9.648;2023-12-28T03:00:37;14.83;;;4.63;;
18072;SDS011;9161;47.348;9.648;2023-12-28T03:05:39;11.00;;;4.93;;
18072;SDS011;9161;47.348;9.648;2023-12-28T03:10:43;10.77;;;4.60;;
18072;SDS011;9161;47.348;9.648;2023-12-28T03:15:45;11.40;;;5.37;;
18072;SDS011;9161;47.348;9.648;2023-12-28T03:20:47;11.53;;;4.83;;
18072;SDS011;9161;47.348;9.648;2023-12-28T03:25:50;12.40;;;4.33;;
18072;SDS011;9161;47.348;9.648;2023-12-28T03:30:52;12.53;;;4.50;;
18072;SDS011;9161;47.348;9.648;2023-12-28T03:35:55;9.50;;;4.33;;
18072;SDS011;9161;47.348;9.648;2023-12-28T03:40:58;6.40;;;3.00;;
18072;SDS011;9161;47.348;9.648;2023-12-28T03:46:00;6.87;;;2.53;;
18072;SDS011;9161;47.348;9.648;2023-12-28T03:51:02;5.60;;;2.47;;
18072;SDS011;9161;47.348;9.648;2023-12-28T03:56:06;6.13;;;2.30;;
18072;SDS011;9161;47.348;9.648;2023-12-28T04:01:08;6.80;;;2.73;;
18072;SDS011;9161;47.348;9.648;2023-12-28T04:06:12;6.43;;;2.53;;
18072;SDS011;9161;47.348;9.648;2023-12-28T04:11:15;5.77;;;2.33;;
18072;SDS011;9161;47.348;9.648;2023-12-28T04:16:17;5.13;;;2.03;;
18072;SDS011;9161;47.348;9.648;2023-12-28T04:21:19;7.43;;;1.87;;
18072;SDS011;9161;47.348;9.648;2023-12-28T04:26:23;5.53;;;1.97;;
18072;SDS011;9161;47.348;9.648;2023-12-28T04:31:25;6.87;;;2.10;;
18072;SDS011;9161;47.348;9.648;2023-12-28T04:36:27;5.00;;;2.00;;
18072;SDS011;9161;47.348;9.648;2023-12-28T04:41:30;4.83;;;1.93;;
18072;SDS011;9161;47.348;9.648;2023-12-28T04:46:32;8.40;;;3.43;;
18072;SDS011;9161;47.348;9.648;2023-12-28T04:51:42;7.17;;;3.30;;
18072;SDS011;9161;47.348;9.648;2023-12-28T04:56:46;5.80;;;2.63;;
18072;SDS011;9161;47.348;9.648;2023-12-28T05:01:48;7.57;;;3.07;;
18072;SDS011;9161;47.348;9.648;2023-12-28T05:06:50;5.77;;;2.80;;
18072;SDS011;9161;47.348;9.648;2023-12-28T05:11:54;4.60;;;2.67;;
18072;SDS011;9161;47.348;9.648;2023-12-28T05:16:56;9.87;;;3.10;;
18072;SDS011;9161;47.348;9.648;2023-12-28T05:21:58;7.03;;;3.43;;
18072;SDS011;9161;47.348;9.648;2023-12-28T05:27:04;8.10;;;3.07;;
18072;SDS011;9161;47.348;9.648;2023-12-28T05:32:06;7.43;;;3.47;;
18072;SDS011;9161;47.348;9.648;2023-12-28T05:37:08;8.43;;;3.53;;
18072;SDS011;9161;47.348;9.648;2023-12-28T05:42:11;5.87;;;2.87;;
18072;SDS011;9161;47.348;9.648;2023-12-28T05:47:13;7.93;;;3.43;;
18072;SDS011;9161;47.348;9.648;2023-12-28T05:52:15;6.23;;;3.20;;
18072;SDS011;9161;47.348;9.648;2023-12-28T05:57:20;13.10;;;3.50;;
18072;SDS011;9161;47.348;9.648;2023-12-28T06:02:22;7.57;;;3.37;;
18072;SDS011;9161;47.348;9.648;2023-12-28T06:07:24;10.63;;;3.10;;
18072;SDS011;9161;47.348;9.648;2023-12-28T06:12:28;6.23;;;3.00;;
18072;SDS011;9161;47.348;9.648;2023-12-28T06:17:30;4.93;;;2.50;;
18072;SDS011;9161;47.348;9.648;2023-12-28T06:22:36;10.40;;;3.90;;
18072;SDS011;9161;47.348;9.648;2023-12-28T06:27:39;6.93;;;3.17;;
18072;SDS011;9161;47.348;9.648;2023-12-28T06:32:42;7.37;;;2.70;;
18072;SDS011;9161;47.348;9.648;2023-12-28T06:37:44;9.53;;;3.30;;
18072;SDS011;9161;47.348;9.648;2023-12-28T06:42:47;8.67;;;3.80;;
18072;SDS011;9161;47.348;9.648;2023-12-28T06:47:49;11.50;;;4.80;;
18072;SDS011;9161;47.348;9.648;2023-12-28T06:52:51;8.17;;;3.33;;
18072;SDS011;9161;47.348;9.648;2023-12-28T06:57:54;9.67;;;3.03;;
18072;SDS011;9161;47.348;9.648;2023-12-28T07:02:57;9.73;;;3.53;;
18072;SDS011;9161;47.348;9.648;2023-12-28T07:07:59;7.23;;;3.43;;
18072;SDS011;9161;47.348;9.648;2023-12-28T07:13:03;5.80;;;3.33;;
18072;SDS011;9161;47.348;9.648;2023-12-28T07:18:05;8.90;;;3.43;;
18072;SDS011;9161;47.348;9.648;2023-12-28T07:23:08;3.83;;;1.37;;
18072;SDS011;9161;47.348;9.648;2023-12-28T07:28:11;16.10;;;4.90;;
18072;SDS011;9161;47.348;9.648;2023-12-28T07:33:13;10.23;;;4.13;;
18072;SDS011;9161;47.348;9.648;2023-12-28T07:38:15;6.67;;;3.50;;
18072;SDS011;9161;47.348;9.648;2023-12-28T07:43:19;10.63;;;4.83;;
18072;SDS011;9161;47.348;9.648;2023-12-28T07:48:21;9.07;;;4.33;;
18072;SDS011;9161;47.348;9.648;2023-12-28T07:53:24;13.00;;;4.50;;
18072;SDS011;9161;47.348;9.648;2023-12-28T07:58:28;9.93;;;4.27;;
18072;SDS011;9161;47.348;9.648;2023-12-28T08:03:30;8.87;;;4.37;;
18072;SDS011;9161;47.348;9.648;2023-12-28T08:08:32;19.70;;;3.70;;
18072;SDS011;9161;47.348;9.648;2023-12-28T08:13:35;6.03;;;2.47;;
18072;SDS011;9161;47.348;9.648;2023-12-28T08:18:37;11.10;;;3.83;;
18072;SDS011;9161;47.348;9.648;2023-12-28T08:23:40;5.80;;;3.33;;
18072;SDS011;9161;47.348;9.648;2023-12-28T08:28:43;6.87;;;2.83;;
18072;SDS011;9161;47.348;9.648;2023-12-28T08:33:45;7.93;;;2.73;;
18072;SDS011;9161;47.348;9.648;2023-12-28T08:38:48;6.37;;;2.20;;
18072;SDS011;9161;47.348;9.648;2023-12-28T08:43:51;6.30;;;2.77;;
18072;SDS011;9161;47.348;9.648;2023-12-28T08:48:54;4.83;;;2.50;;
18072;SDS011;9161;47.348;9.648;2023-12-28T08:53:56;7.90;;;2.13;;
18072;SDS011;9161;47.348;9.648;2023-12-28T08:58:59;6.00;;;3.57;;
18072;SDS011;9161;47.348;9.648;2023-12-28T09:04:01;12.13;;;4.70;;
18072;SDS011;9161;47.348;9.648;2023-12-28T09:09:04;8.90;;;4.53;;
18072;SDS011;9161;47.348;9.648;2023-12-28T09:14:08;7.20;;;3.57;;
18072;SDS011;9161;47.348;9.648;2023-12-28T09:19:10;7.27;;;3.43;;
18072;SDS011;9161;47.348;9.648;2023-12-28T09:24:13;8.40;;;3.43;;
18072;SDS011;9161;47.348;9.648;2023-12-28T09:29:17;7.70;;;3.10;;
18072;SDS011;9161;47.348;9.648;2023-12-28T09:34:19;9.13;;;2.67;;
18072;SDS011;9161;47.348;9.648;2023-12-28T09:39:21;3.13;;;1.20;;
18072;SDS011;9161;47.348;9.648;2023-12-28T09:44:25;1.37;;;0.37;;
18072;SDS011;9161;47.348;9.648;2023-12-28T09:49:29;0.97;;;0.43;;
18072;SDS011;9161;47.348;9.648;2023-12-28T09:54:34;3.97;;;1.37;;
18072;SDS011;9161;47.348;9.648;2023-12-28T09:59:38;7.90;;;3.10;;
18072;SDS011;9161;47.348;9.648;2023-12-28T10:04:41;8.97;;;3.40;;
18072;SDS011;9161;47.348;9.648;2023-12-28T10:09:44;9.00;;;4.20;;
18072;SDS011;9161;47.348;9.648;2023-12-28T10:14:47;9.07;;;3.80;;
18072;SDS011;9161;47.348;9.648;2023-12-28T10:19:52;9.50;;;4.33;;
18072;SDS011;9161;47.348;9.648;2023-12-28T10:24:56;5.27;;;3.03;;
18072;SDS011;9161;47.348;9.648;2023-12-28T10:30:01;10.57;;;3.37;;
18072;SDS011;9161;47.348;9.648;2023-12-28T10:35:04;9.70;;;4.03;;
18072;SDS011;9161;47.348;9.648;2023-12-28T10:40:07;10.83;;;3.60;;
18072;SDS011;9161;47.348;9.648;2023-12-28T10:45:15;6.47;;;2.93;;
18072;SDS011;9161;47.348;9.648;2023-12-28T10:50:21;5.80;;;2.77;;
18072;SDS011;9161;47.348;9.648;2023-12-28T10:55:30;8.07;;;3.73;;
18072;SDS011;9161;47.348;9.648;2023-12-28T11:00:41;7.80;;;3.73;;
18072;SDS011;9161;47.348;9.648;2023-12-28T11:05:49;11.73;;;3.80;;
18072;SDS011;9161;47.348;9.648;2023-12-28T11:10:52;7.67;;;2.83;;
18072;SDS011;9161;47.348;9.648;2023-12-28T11:15:56;6.93;;;2.80;;
18072;SDS011;9161;47.348;9.648;2023-12-28T11:21:00;6.30;;;3.30;;
18072;SDS011;9161;47.348;9.648;2023-12-28T11:26:02;8.83;;;3.10;;
18072;SDS011;9161;47.348;9.648;2023-12-28T11:31:06;4.60;;;2.90;;
18072;SDS011;9161;47.348;9.648;2023-12-28T11:36:12;6.37;;;2.90;;
18072;SDS011;9161;47.348;9.648;2023-12-28T11:41:24;8.43;;;3.33;;
18072;SDS011;9161;47.348;9.648;2023-12-28T11:46:28;9.03;;;3.40;;
18072;SDS011;9161;47.348;9.648;2023-12-28T11:51:31;8.53;;;3.60;;
18072;SDS011;9161;47.348;9.648;2023-12-28T11:56:33;13.23;;;3.80;;
18072;SDS011;9161;47.348;9.648;2023-12-28T12:01:38;10.50;;;3.27;;
18072;SDS011;9161;47.348;9.648;2023-12-28T12:06:42;11.87;;;3.87;;
18072;SDS011;9161;47.348;9.648;2023-12-28T12:11:44;13.13;;;4.23;;
18072;SDS011;9161;47.348;9.648;2023-12-28T12:16:48;12.33;;;3.90;;
18072;SDS011;9161;47.348;9.648;2023-12-28T12:21:53;12.77;;;4.30;;
18072;SDS011;9161;47.348;9.648;2023-12-28T12:26:55;12.30;;;4.07;;
18072;SDS011;9161;47.348;9.648;2023-12-28T12:31:58;13.70;;;6.03;;
18072;SDS011;9161;47.348;9.648;2023-12-28T12:37:03;13.07;;;4.23;;
18072;SDS011;9161;47.348;9.648;2023-12-28T12:42:06;15.10;;;3.13;;
18072;SDS011;9161;47.348;9.648;2023-12-28T12:47:09;6.30;;;2.93;;
18072;SDS011;9161;47.348;9.648;2023-12-28T12:52:12;11.30;;;3.63;;
18072;SDS011;9161;47.348;9.648;2023-12-28T12:57:14;10.00;;;3.33;;
18072;SDS011;9161;47.348;9.648;2023-12-28T13:02:19;7.43;;;3.33;;
18072;SDS011;9161;47.348;9.648;2023-12-28T13:07:25;8.97;;;3.13;;
18072;SDS011;9161;47.348;9.648;2023-12-28T13:12:27;8.93;;;4.27;;
18072;SDS011;9161;47.348;9.648;2023-12-28T13:17:32;8.43;;;3.27;;
18072;SDS011;9161;47.348;9.648;2023-12-28T13:22:34;6.63;;;3.00;;
18072;SDS011;9161;47.348;9.648;2023-12-28T13:27:36;9.60;;;3.03;;
18072;SDS011;9161;47.348;9.648;2023-12-28T13:32:40;6.40;;;3.10;;
18072;SDS011;9161;47.348;9.648;2023-12-28T13:37:42;8.07;;;3.90;;
18072;SDS011;9161;47.348;9.648;2023-12-28T13:42:44;7.37;;;3.17;;
18072;SDS011;9161;47.348;9.648;2023-12-28T13:47:48;10.50;;;3.60;;
18072;SDS011;9161;47.348;9.648;2023-12-28T13:52:50;9.50;;;3.90;;
18072;SDS011;9161;47.348;9.648;2023-12-28T13:57:52;8.73;;;3.90;;
18072;SDS011;9161;47.348;9.648;2023-12-28T14:02:56;13.20;;;4.20;;
18072;SDS011;9161;47.348;9.648;2023-12-28T14:08:00;12.07;;;4.30;;
18072;SDS011;9161;47.348;9.648;2023-12-28T14:13:03;7.43;;;4.30;;
18072;SDS011;9161;47.348;9.648;2023-12-28T14:18:07;14.03;;;4.07;;
18072;SDS011;9161;47.348;9.648;2023-12-28T14:23:10;10.77;;;4.43;;
18072;SDS011;9161;47.348;9.648;2023-12-28T14:28:13;16.23;;;4.43;;
18072;SDS011;9161;47.348;9.648;2023-12-28T14:33:18;8.53;;;4.23;;
18072;SDS011;9161;47.348;9.648;2023-12-28T14:38:21;25.10;;;9.87;;
18072;SDS011;9161;47.348;9.648;2023-12-28T14:43:24;14.67;;;5.67;;
18072;SDS011;9161;47.348;9.648;2023-12-28T14:48:27;18.27;;;5.67;;
18072;SDS011;9161;47.348;9.648;2023-12-28T14:53:30;12.03;;;6.40;;
18072;SDS011;9161;47.348;9.648;2023-12-28T14:58:32;16.13;;;6.90;;
18072;SDS011;9161;47.348;9.648;2023-12-28T15:03:35;20.57;;;6.10;;
18072;SDS011;9161;47.348;9.648;2023-12-28T15:08:39;20.20;;;6.90;;
18072;SDS011;9161;47.348;9.648;2023-12-28T15:13:42;16.80;;;6.23;;
18072;SDS011;9161;47.348;9.648;2023-12-28T15:18:46;12.07;;;6.10;;
18072;SDS011;9161;47.348;9.648;2023-12-28T15:23:49;14.10;;;5.27;;
18072;SDS011;9161;47.348;9.648;2023-12-28T15:28:52;14.17;;;6.87;;
18072;SDS011;9161;47.348;9.648;2023-12-28T15:33:56;14.50;;;6.30;;
18072;SDS011;9161;47.348;9.648;2023-12-28T15:38:58;14.13;;;6.57;;
18072;SDS011;9161;47.348;9.648;2023-12-28T15:44:04;19.73;;;6.93;;
18072;SDS011;9161;47.348;9.648;2023-12-28T15:49:07;21.10;;;6.73;;
18072;SDS011;9161;47.348;9.648;2023-12-28T15:54:10;18.30;;;7.93;;
18072;SDS011;9161;47.348;9.648;2023-12-28T15:59:12;12.73;;;5.93;;
18072;SDS011;9161;47.348;9.648;2023-12-28T16:04:15;14.20;;;6.17;;
18072;SDS011;9161;47.348;9.648;2023-12-28T16:09:17;13.40;;;5.40;;
18072;SDS011;9161;47.348;9.648;2023-12-28T16:14:20;46.67;;;14.90;;
18072;SDS011;9161;47.348;9.648;2023-12-28T16:19:24;14.23;;;6.53;;
18072;SDS011;9161;47.348;9.648;2023-12-28T16:24:27;13.47;;;5.73;;
18072;SDS011;9161;47.348;9.648;2023-12-28T16:29:29;14.97;;;6.03;;
18072;SDS011;9161;47.348;9.648;2023-12-28T16:34:33;13.07;;;6.73;;
18072;SDS011;9161;47.348;9.648;2023-12-28T16:39:37;15.73;;;6.30;;
18072;SDS011;9161;47.348;9.648;2023-12-28T16:44:40;12.93;;;5.40;;
18072;SDS011;9161;47.348;9.648;2023-12-28T16:49:45;9.50;;;5.00;;
18072;SDS011;9161;47.348;9.648;2023-12-28T16:54:48;9.83;;;4.43;;
18072;SDS011;9161;47.348;9.648;2023-12-28T16:59:50;7.70;;;4.23;;
18072;SDS011;9161;47.348;9.648;2023-12-28T17:05:08;9.07;;;4.67;;
18072;SDS011;9161;47.348;9.648;2023-12-28T17:10:12;20.87;;;8.23;;
18072;SDS011;9161;47.348;9.648;2023-12-28T17:15:16;16.20;;;5.47;;
18072;SDS011;9161;47.348;9.648;2023-12-28T17:20:21;10.83;;;4.47;;
18072;SDS011;9161;47.348;9.648;2023-12-28T17:25:27;12.57;;;5.97;;
18072;SDS011;9161;47.348;9.648;2023-12-28T17:30:33;12.90;;;5.60;;
18072;SDS011;9161;47.348;9.648;2023-12-28T17:35:39;13.83;;;5.50;;
18072;SDS011;9161;47.348;9.648;2023-12-28T17:40:42;13.50;;;5.27;;
18072;SDS011;9161;47.348;9.648;2023-12-28T17:45:47;14.37;;;5.47;;
18072;SDS011;9161;47.348;9.648;2023-12-28T17:50:57;14.77;;;5.57;;
18072;SDS011;9161;47.348;9.648;2023-12-28T17:56:02;11.77;;;6.47;;
18072;SDS011;9161;47.348;9.648;2023-12-28T18:01:04;21.70;;;7.97;;
18072;SDS011;9161;47.348;9.648;2023-12-28T18:06:08;15.53;;;6.80;;
18072;SDS011;9161;47.348;9.648;2023-12-28T18:11:10;15.57;;;6.90;;
18072;SDS011;9161;47.348;9.648;2023-12-28T18:16:13;20.23;;;7.00;;
18072;SDS011;9161;47.348;9.648;2023-12-28T18:21:17;16.23;;;7.87;;
18072;SDS011;9161;47.348;9.648;2023-12-28T18:26:20;19.20;;;7.90;;
18072;SDS011;9161;47.348;9.648;2023-12-28T18:31:25;17.73;;;8.60;;
18072;SDS011;9161;47.348;9.648;2023-12-28T18:36:32;19.90;;;7.90;;
18072;SDS011;9161;47.348;9.648;2023-12-28T18:41:36;15.83;;;6.57;;
18072;SDS011;9161;47.348;9.648;2023-12-28T18:46:44;26.57;;;8.50;;
18072;SDS011;9161;47.348;9.648;2023-12-28T18:51:49;22.40;;;7.97;;
18072;SDS011;9161;47.348;9.648;2023-12-28T18:56:53;14.07;;;6.07;;
18072;SDS011;9161;47.348;9.648;2023-12-28T19:01:57;16.87;;;6.27;;
18072;SDS011;9161;47.348;9.648;2023-12-28T19:07:03;16.07;;;7.03;;
18072;SDS011;9161;47.348;9.648;2023-12-28T19:12:08;17.13;;;6.80;;
18072;SDS011;9161;47.348;9.648;2023-12-28T19:17:12;18.70;;;7.60;;
18072;SDS011;9161;47.348;9.648;2023-12-28T19:22:18;19.17;;;8.10;;
18072;SDS011;9161;47.348;9.648;2023-12-28T19:27:23;20.47;;;9.17;;
18072;SDS011;9161;47.348;9.648;2023-12-28T19:32:27;31.60;;;12.80;;
18072;SDS011;9161;47.348;9.648;2023-12-28T19:37:34;17.97;;;8.23;;
18072;SDS011;9161;47.348;9.648;2023-12-28T19:42:39;14.30;;;7.63;;
18072;SDS011;9161;47.348;9.648;2023-12-28T19:47:43;13.73;;;7.23;;
18072;SDS011;9161;47.348;9.648;2023-12-28T19:52:49;17.83;;;8.73;;
18072;SDS011;9161;47.348;9.648;2023-12-28T19:57:52;11.47;;;5.93;;
18072;SDS011;9161;47.348;9.648;2023-12-28T20:02:56;17.53;;;6.30;;
18072;SDS011;9161;47.348;9.648;2023-12-28T20:08:06;11.03;;;4.47;;
18072;SDS011;9161;47.348;9.648;2023-12-28T20:13:10;9.13;;;4.47;;
18072;SDS011;9161;47.348;9.648;2023-12-28T20:18:15;13.03;;;5.43;;
18072;SDS011;9161;47.348;9.648;2023-12-28T20:23:19;9.50;;;4.70;;
18072;SDS011;9161;47.348;9.648;2023-12-28T20:28:23;14.30;;;5.03;;
18072;SDS011;9161;47.348;9.648;2023-12-28T20:33:25;11.50;;;4.23;;
18072;SDS011;9161;47.348;9.648;2023-12-28T20:38:34;9.80;;;4.40;;
18072;SDS011;9161;47.348;9.648;2023-12-28T20:43:38;13.83;;;5.10;;
18072;SDS011;9161;47.348;9.648;2023-12-28T20:48:43;11.33;;;3.83;;
18072;SDS011;9161;47.348;9.648;2023-12-28T20:53:50;10.93;;;4.50;;
18072;SDS011;9161;47.348;9.648;2023-12-28T20:58:55;12.23;;;4.67;;
18072;SDS011;9161;47.348;9.648;2023-12-28T21:04:00;12.27;;;4.97;;
18072;SDS011;9161;47.348;9.648;2023-12-28T21:09:09;12.20;;;5.03;;
18072;SDS011;9161;47.348;9.648;2023-12-28T21:14:13;14.43;;;5.40;;
18072;SDS011;9161;47.348;9.648;2023-12-28T21:19:17;12.80;;;5.23;;
18072;SDS011;9161;47.348;9.648;2023-12-28T21:24:21;7.93;;;4.37;;
18072;SDS011;9161;47.348;9.648;2023-12-28T21:29:24;12.67;;;5.70;;
18072;SDS011;9161;47.348;9.648;2023-12-28T21:34:26;9.87;;;4.93;;
18072;SDS011;9161;47.348;9.648;2023-12-28T21:39:30;15.10;;;4.17;;
18072;SDS011;9161;47.348;9.648;2023-12-28T21:44:34;13.07;;;5.70;;
18072;SDS011;9161;47.348;9.648;2023-12-28T21:49:37;15.13;;;7.23;;
18072;SDS011;9161;47.348;9.648;2023-12-28T21:54:43;13.03;;;6.33;;
18072;SDS011;9161;47.348;9.648;2023-12-28T21:59:45;13.57;;;6.70;;
18072;SDS011;9161;47.348;9.648;2023-12-28T22:04:47;13.00;;;6.67;;
18072;SDS011;9161;47.348;9.648;2023-12-28T22:09:51;11.60;;;5.73;;
18072;SDS011;9161;47.348;9.648;2023-12-28T22:14:54;13.30;;;6.80;;
18072;SDS011;9161;47.348;9.648;2023-12-28T22:19:56;12.23;;;5.90;;
18072;SDS011;9161;47.348;9.648;2023-12-28T22:25:00;12.83;;;5.53;;
18072;SDS011;9161;47.348;9.648;2023-12-28T22:30:03;15.93;;;6.27;;
18072;SDS011;9161;47.348;9.648;2023-12-28T22:35:07;12.60;;;5.73;;
18072;SDS011;9161;47.348;9.648;2023-12-28T22:40:13;10.50;;;5.60;;
18072;SDS011;9161;47.348;9.648;2023-12-28T22:45:15;15.53;;;6.87;;
18072;SDS011;9161;47.348;9.648;2023-12-28T22:50:17;12.50;;;6.23;;
18072;SDS011;9161;47.348;9.648;2023-12-28T22:55:20;13.30;;;6.00;;
18072;SDS011;9161;47.348;9.648;2023-12-28T23:00:22;14.53;;;5.60;;
18072;SDS011;9161;47.348;9.648;2023-12-28T23:05:32;10.47;;;5.10;;
18072;SDS011;9161;47.348;9.648;2023-12-28T23:10:36;10.73;;;4.03;;
18072;SDS011;9161;47.348;9.648;2023-12-28T23:15:42;9.47;;;4.17;;
18072;SDS011;9161;47.348;9.648;2023-12-28T23:20:45;13.30;;;4.10;;
18072;SDS011;9161;47.348;9.648;2023-12-28T23:25:49;10.23;;;4.37;;
18072;SDS011;9161;47.348;9.648;2023-12-28T23:30:51;10.53;;;4.57;;
18072;SDS011;9161;47.348;9.648;2023-12-28T23:35:53;10.83;;;4.10;;
18072;SDS011;9161;47.348;9.648;2023-12-28T23:40:56;8.10;;;3.67;;
18072;SDS011;9161;47.348;9.648;2023-12-28T23:45:59;9.00;;;4.20;;
18072;SDS011;9161;47.348;9.648;2023-12-28T23:51:02;8.93;;;3.87;;
18072;SDS011;9161;47.348;9.648;2023-12-28T23:56:17;7.23;;;3.40;;
